Pagina principală
METAR-TAF:

METAR-TAF

Aeroporturi :

Mildura, Australia

Latitudine: 34-13-45S, longitudine: 142-05-08E, elevație: 51 m

Observații meteo curente

Raportul a fost făcut în urmă cu 10 de minute, la 09:00 UTC
Vânt 6 kt de la Nord/Nord-est
Temperatură 13°C
Umiditate 58%
Presiune 1020 hPa
Vizibilitate de 10 km sau mai mult

METAR: YMIA 260900Z AUTO 03006KT 9999 // NCD 13/05 Q1020

Ora: 19:10 (09:10 UTC)


TAF: lipsă

Observații și prognoze meteo pentru peste 4.000 de aeroporturi (rapoarte METAR și TAF).

Stațiile disponibile sunt reprezentate pe hartă prin puncte galbene și roșii.

Țineți indicatorul mouse-ului pe punctul dorit pentru a vedea denumirea stației.

Apoi, faceți clic pentru a vedea observațiile și prognozele meteorologice.

Pentru a schimba harta: Pentru mărire, faceți clic pe butoanele verzi cu cruce neagră; pentru micșorare, pe butonul verde cu o liniuță; pentru hărți învecinate, pe săgețile verzi.


METAR-TAF: